sensor_id;sensor_type;location;lat;lon;timestamp;P1;durP1;ratioP1;P2;durP2;ratioP2
33716;SDS011;20046;50.746;7.072;2023-05-10T00:00:00;2.97;;;1.80;;
33716;SDS011;20046;50.746;7.072;2023-05-10T00:02:25;5.75;;;1.90;;
33716;SDS011;20046;50.746;7.072;2023-05-10T00:04:51;2.47;;;2.20;;
33716;SDS011;20046;50.746;7.072;2023-05-10T00:07:17;3.08;;;1.70;;
33716;SDS011;20046;50.746;7.072;2023-05-10T00:09:43;2.97;;;2.10;;
33716;SDS011;20046;50.746;7.072;2023-05-10T00:12:09;30.73;;;19.45;;
33716;SDS011;20046;50.746;7.072;2023-05-10T00:14:34;5.80;;;2.40;;
33716;SDS011;20046;50.746;7.072;2023-05-10T00:17:00;2.55;;;1.80;;
33716;SDS011;20046;50.746;7.072;2023-05-10T00:19:26;2.80;;;2.05;;
33716;SDS011;20046;50.746;7.072;2023-05-10T00:21:51;1.92;;;1.50;;
33716;SDS011;20046;50.746;7.072;2023-05-10T00:24:17;2.13;;;1.77;;
33716;SDS011;20046;50.746;7.072;2023-05-10T00:26:42;4.03;;;1.90;;
33716;SDS011;20046;50.746;7.072;2023-05-10T00:29:08;5.38;;;2.05;;
33716;SDS011;20046;50.746;7.072;2023-05-10T00:31:34;7.47;;;2.38;;
33716;SDS011;20046;50.746;7.072;2023-05-10T00:33:59;2.22;;;2.03;;
33716;SDS011;20046;50.746;7.072;2023-05-10T00:36:25;4.30;;;1.92;;
33716;SDS011;20046;50.746;7.072;2023-05-10T00:38:51;4.45;;;2.17;;
33716;SDS011;20046;50.746;7.072;2023-05-10T00:41:16;1.90;;;1.70;;
33716;SDS011;20046;50.746;7.072;2023-05-10T00:43:42;1.90;;;1.65;;
33716;SDS011;20046;50.746;7.072;2023-05-10T00:46:07;2.65;;;1.80;;
33716;SDS011;20046;50.746;7.072;2023-05-10T00:48:33;2.72;;;1.75;;
33716;SDS011;20046;50.746;7.072;2023-05-10T00:51:00;1.80;;;1.60;;
33716;SDS011;20046;50.746;7.072;2023-05-10T00:53:26;2.65;;;1.80;;
33716;SDS011;20046;50.746;7.072;2023-05-10T00:55:51;4.30;;;1.85;;
33716;SDS011;20046;50.746;7.072;2023-05-10T00:58:17;3.58;;;1.30;;
33716;SDS011;20046;50.746;7.072;2023-05-10T01:00:43;7.55;;;1.92;;
33716;SDS011;20046;50.746;7.072;2023-05-10T01:03:11;5.55;;;1.52;;
33716;SDS011;20046;50.746;7.072;2023-05-10T01:05:37;4.43;;;1.40;;
33716;SDS011;20046;50.746;7.072;2023-05-10T01:08:02;1.73;;;1.40;;
33716;SDS011;20046;50.746;7.072;2023-05-10T01:10:28;2.20;;;1.50;;
33716;SDS011;20046;50.746;7.072;2023-05-10T01:12:55;3.08;;;1.20;;
33716;SDS011;20046;50.746;7.072;2023-05-10T01:15:21;4.40;;;2.17;;
33716;SDS011;20046;50.746;7.072;2023-05-10T01:17:48;5.38;;;1.70;;
33716;SDS011;20046;50.746;7.072;2023-05-10T01:20:14;3.25;;;1.58;;
33716;SDS011;20046;50.746;7.072;2023-05-10T01:28:39;1.57;;;1.47;;
33716;SDS011;20046;50.746;7.072;2023-05-10T01:33:52;3.17;;;1.30;;
33716;SDS011;20046;50.746;7.072;2023-05-10T01:36:29;2.78;;;1.75;;
33716;SDS011;20046;50.746;7.072;2023-05-10T01:39:01;3.28;;;1.50;;
33716;SDS011;20046;50.746;7.072;2023-05-10T01:41:36;2.22;;;1.38;;
33716;SDS011;20046;50.746;7.072;2023-05-10T01:46:36;1.65;;;1.55;;
33716;SDS011;20046;50.746;7.072;2023-05-10T01:49:08;2.42;;;1.67;;
33716;SDS011;20046;50.746;7.072;2023-05-10T01:51:39;5.28;;;1.95;;
33716;SDS011;20046;50.746;7.072;2023-05-10T01:54:11;2.05;;;1.67;;
33716;SDS011;20046;50.746;7.072;2023-05-10T01:56:38;3.60;;;1.80;;
33716;SDS011;20046;50.746;7.072;2023-05-10T01:59:07;6.32;;;2.42;;
33716;SDS011;20046;50.746;7.072;2023-05-10T02:01:37;3.22;;;1.95;;
33716;SDS011;20046;50.746;7.072;2023-05-10T02:04:04;4.75;;;2.20;;
33716;SDS011;20046;50.746;7.072;2023-05-10T02:06:32;2.80;;;2.20;;
33716;SDS011;20046;50.746;7.072;2023-05-10T02:08:59;2.92;;;2.03;;
33716;SDS011;20046;50.746;7.072;2023-05-10T02:11:26;2.35;;;2.10;;
33716;SDS011;20046;50.746;7.072;2023-05-10T02:13:53;3.72;;;2.22;;
33716;SDS011;20046;50.746;7.072;2023-05-10T02:16:21;3.05;;;2.00;;
33716;SDS011;20046;50.746;7.072;2023-05-10T02:18:50;3.05;;;1.90;;
33716;SDS011;20046;50.746;7.072;2023-05-10T02:21:17;9.95;;;3.28;;
33716;SDS011;20046;50.746;7.072;2023-05-10T02:23:45;4.13;;;2.20;;
33716;SDS011;20046;50.746;7.072;2023-05-10T02:26:12;4.38;;;2.03;;
33716;SDS011;20046;50.746;7.072;2023-05-10T02:28:40;8.70;;;2.10;;
33716;SDS011;20046;50.746;7.072;2023-05-10T02:31:07;2.20;;;1.90;;
33716;SDS011;20046;50.746;7.072;2023-05-10T02:33:35;8.32;;;2.50;;
33716;SDS011;20046;50.746;7.072;2023-05-10T02:36:03;5.40;;;2.33;;
33716;SDS011;20046;50.746;7.072;2023-05-10T02:38:30;8.82;;;2.80;;
33716;SDS011;20046;50.746;7.072;2023-05-10T02:40:57;4.32;;;2.72;;
33716;SDS011;20046;50.746;7.072;2023-05-10T02:43:24;4.13;;;2.83;;
33716;SDS011;20046;50.746;7.072;2023-05-10T02:45:50;5.40;;;3.58;;
33716;SDS011;20046;50.746;7.072;2023-05-10T02:48:16;8.40;;;3.60;;
33716;SDS011;20046;50.746;7.072;2023-05-10T02:50:45;5.13;;;3.63;;
33716;SDS011;20046;50.746;7.072;2023-05-10T02:55:44;6.70;;;3.70;;
33716;SDS011;20046;50.746;7.072;2023-05-10T02:58:14;8.43;;;3.28;;
33716;SDS011;20046;50.746;7.072;2023-05-10T03:00:39;4.07;;;3.10;;
33716;SDS011;20046;50.746;7.072;2023-05-10T03:03:05;6.18;;;2.85;;
33716;SDS011;20046;50.746;7.072;2023-05-10T03:05:31;4.22;;;2.58;;
33716;SDS011;20046;50.746;7.072;2023-05-10T03:07:58;5.78;;;2.70;;
33716;SDS011;20046;50.746;7.072;2023-05-10T03:10:28;3.13;;;2.40;;
33716;SDS011;20046;50.746;7.072;2023-05-10T03:18:23;4.20;;;2.28;;
33716;SDS011;20046;50.746;7.072;2023-05-10T03:21:00;3.47;;;2.15;;
33716;SDS011;20046;50.746;7.072;2023-05-10T03:23:33;3.08;;;2.40;;
33716;SDS011;20046;50.746;7.072;2023-05-10T03:25:59;8.00;;;2.80;;
33716;SDS011;20046;50.746;7.072;2023-05-10T03:28:25;4.35;;;3.30;;
33716;SDS011;20046;50.746;7.072;2023-05-10T03:30:52;9.20;;;3.72;;
33716;SDS011;20046;50.746;7.072;2023-05-10T03:33:19;12.52;;;4.82;;
33716;SDS011;20046;50.746;7.072;2023-05-10T03:35:45;9.43;;;5.07;;
33716;SDS011;20046;50.746;7.072;2023-05-10T03:38:11;11.43;;;6.50;;
33716;SDS011;20046;50.746;7.072;2023-05-10T03:40:37;15.93;;;6.95;;
33716;SDS011;20046;50.746;7.072;2023-05-10T03:43:03;12.05;;;6.88;;
33716;SDS011;20046;50.746;7.072;2023-05-10T03:45:29;22.98;;;8.65;;
33716;SDS011;20046;50.746;7.072;2023-05-10T03:47:55;13.93;;;7.65;;
33716;SDS011;20046;50.746;7.072;2023-05-10T03:50:22;12.10;;;7.18;;
33716;SDS011;20046;50.746;7.072;2023-05-10T03:52:48;12.20;;;7.47;;
33716;SDS011;20046;50.746;7.072;2023-05-10T03:55:14;13.05;;;7.32;;
33716;SDS011;20046;50.746;7.072;2023-05-10T03:57:40;12.20;;;7.25;;
33716;SDS011;20046;50.746;7.072;2023-05-10T04:00:05;14.60;;;7.63;;
33716;SDS011;20046;50.746;7.072;2023-05-10T04:02:31;13.88;;;7.68;;
33716;SDS011;20046;50.746;7.072;2023-05-10T04:04:57;15.27;;;8.05;;
33716;SDS011;20046;50.746;7.072;2023-05-10T04:07:22;15.63;;;8.40;;
33716;SDS011;20046;50.746;7.072;2023-05-10T04:09:48;16.08;;;9.10;;
33716;SDS011;20046;50.746;7.072;2023-05-10T04:12:14;19.70;;;9.98;;
33716;SDS011;20046;50.746;7.072;2023-05-10T04:14:40;19.23;;;9.23;;
33716;SDS011;20046;50.746;7.072;2023-05-10T04:17:05;21.23;;;9.25;;
33716;SDS011;20046;50.746;7.072;2023-05-10T04:19:31;21.17;;;10.15;;
33716;SDS011;20046;50.746;7.072;2023-05-10T04:21:57;25.38;;;11.45;;
33716;SDS011;20046;50.746;7.072;2023-05-10T04:24:23;27.80;;;14.13;;
33716;SDS011;20046;50.746;7.072;2023-05-10T04:26:49;30.48;;;13.27;;
33716;SDS011;20046;50.746;7.072;2023-05-10T04:29:14;31.08;;;14.93;;
33716;SDS011;20046;50.746;7.072;2023-05-10T04:31:40;28.25;;;14.52;;
33716;SDS011;20046;50.746;7.072;2023-05-10T04:34:06;28.85;;;14.52;;
33716;SDS011;20046;50.746;7.072;2023-05-10T04:36:31;27.92;;;14.80;;
33716;SDS011;20046;50.746;7.072;2023-05-10T04:39:01;31.67;;;14.85;;
33716;SDS011;20046;50.746;7.072;2023-05-10T04:41:27;30.02;;;15.60;;
33716;SDS011;20046;50.746;7.072;2023-05-10T04:43:53;33.70;;;16.23;;
33716;SDS011;20046;50.746;7.072;2023-05-10T04:46:19;31.60;;;15.60;;
33716;SDS011;20046;50.746;7.072;2023-05-10T04:48:44;36.45;;;18.73;;
33716;SDS011;20046;50.746;7.072;2023-05-10T04:51:10;38.65;;;17.73;;
33716;SDS011;20046;50.746;7.072;2023-05-10T04:53:36;37.15;;;19.27;;
33716;SDS011;20046;50.746;7.072;2023-05-10T04:56:02;38.03;;;19.52;;
33716;SDS011;20046;50.746;7.072;2023-05-10T04:58:27;38.90;;;18.42;;
33716;SDS011;20046;50.746;7.072;2023-05-10T05:00:53;41.85;;;20.20;;
33716;SDS011;20046;50.746;7.072;2023-05-10T05:03:18;39.03;;;20.33;;
33716;SDS011;20046;50.746;7.072;2023-05-10T05:05:44;46.80;;;21.08;;
33716;SDS011;20046;50.746;7.072;2023-05-10T05:08:10;41.53;;;21.30;;
33716;SDS011;20046;50.746;7.072;2023-05-10T05:10:35;45.60;;;21.42;;
33716;SDS011;20046;50.746;7.072;2023-05-10T05:13:01;42.03;;;21.15;;
33716;SDS011;20046;50.746;7.072;2023-05-10T05:15:26;44.95;;;22.98;;
33716;SDS011;20046;50.746;7.072;2023-05-10T05:17:52;47.47;;;23.02;;
33716;SDS011;20046;50.746;7.072;2023-05-10T05:20:18;41.90;;;21.83;;
33716;SDS011;20046;50.746;7.072;2023-05-10T05:22:44;45.28;;;22.55;;
33716;SDS011;20046;50.746;7.072;2023-05-10T05:25:09;51.20;;;22.77;;
33716;SDS011;20046;50.746;7.072;2023-05-10T05:27:36;41.95;;;22.27;;
33716;SDS011;20046;50.746;7.072;2023-05-10T05:30:02;45.97;;;22.70;;
33716;SDS011;20046;50.746;7.072;2023-05-10T05:32:29;46.20;;;21.88;;
33716;SDS011;20046;50.746;7.072;2023-05-10T05:34:54;46.90;;;23.95;;
33716;SDS011;20046;50.746;7.072;2023-05-10T05:37:20;41.75;;;22.88;;
33716;SDS011;20046;50.746;7.072;2023-05-10T05:39:46;44.15;;;21.90;;
33716;SDS011;20046;50.746;7.072;2023-05-10T05:42:12;47.25;;;23.67;;
33716;SDS011;20046;50.746;7.072;2023-05-10T05:44:38;50.20;;;22.33;;
33716;SDS011;20046;50.746;7.072;2023-05-10T05:47:05;40.95;;;21.95;;
33716;SDS011;20046;50.746;7.072;2023-05-10T05:49:31;41.10;;;21.75;;
33716;SDS011;20046;50.746;7.072;2023-05-10T05:52:00;37.35;;;19.50;;
33716;SDS011;20046;50.746;7.072;2023-05-10T05:54:27;40.88;;;19.65;;
33716;SDS011;20046;50.746;7.072;2023-05-10T05:56:54;41.67;;;19.80;;
33716;SDS011;20046;50.746;7.072;2023-05-10T05:59:20;37.42;;;20.45;;
33716;SDS011;20046;50.746;7.072;2023-05-10T06:01:46;36.58;;;19.83;;
33716;SDS011;20046;50.746;7.072;2023-05-10T06:04:12;35.33;;;19.73;;
33716;SDS011;20046;50.746;7.072;2023-05-10T06:06:37;31.92;;;18.50;;
33716;SDS011;20046;50.746;7.072;2023-05-10T06:09:03;28.52;;;16.88;;
33716;SDS011;20046;50.746;7.072;2023-05-10T06:11:29;29.17;;;17.45;;
33716;SDS011;20046;50.746;7.072;2023-05-10T06:13:57;26.70;;;16.38;;
33716;SDS011;20046;50.746;7.072;2023-05-10T06:16:23;34.25;;;18.38;;
33716;SDS011;20046;50.746;7.072;2023-05-10T06:18:48;26.13;;;15.68;;
33716;SDS011;20046;50.746;7.072;2023-05-10T06:21:14;26.02;;;15.73;;
33716;SDS011;20046;50.746;7.072;2023-05-10T06:23:41;27.50;;;14.80;;
33716;SDS011;20046;50.746;7.072;2023-05-10T06:26:06;24.98;;;14.93;;
33716;SDS011;20046;50.746;7.072;2023-05-10T06:28:34;27.42;;;13.35;;
33716;SDS011;20046;50.746;7.072;2023-05-10T06:31:00;23.88;;;12.18;;
33716;SDS011;20046;50.746;7.072;2023-05-10T06:33:26;22.05;;;11.63;;
33716;SDS011;20046;50.746;7.072;2023-05-10T06:35:52;22.50;;;12.93;;
33716;SDS011;20046;50.746;7.072;2023-05-10T06:38:18;18.55;;;10.13;;
33716;SDS011;20046;50.746;7.072;2023-05-10T06:40:43;12.95;;;9.38;;
33716;SDS011;20046;50.746;7.072;2023-05-10T06:43:09;14.32;;;8.43;;
33716;SDS011;20046;50.746;7.072;2023-05-10T06:45:35;13.13;;;7.57;;
33716;SDS011;20046;50.746;7.072;2023-05-10T06:48:00;25.35;;;8.77;;
33716;SDS011;20046;50.746;7.072;2023-05-10T06:50:26;15.80;;;8.07;;
33716;SDS011;20046;50.746;7.072;2023-05-10T06:52:52;16.05;;;8.40;;
33716;SDS011;20046;50.746;7.072;2023-05-10T06:55:17;12.93;;;7.70;;
33716;SDS011;20046;50.746;7.072;2023-05-10T06:57:43;14.55;;;8.88;;
33716;SDS011;20046;50.746;7.072;2023-05-10T07:00:08;15.68;;;9.40;;
33716;SDS011;20046;50.746;7.072;2023-05-10T07:02:35;13.57;;;7.10;;
33716;SDS011;20046;50.746;7.072;2023-05-10T07:05:01;15.45;;;8.10;;
33716;SDS011;20046;50.746;7.072;2023-05-10T07:07:27;12.98;;;7.25;;
33716;SDS011;20046;50.746;7.072;2023-05-10T07:09:52;13.00;;;7.68;;
33716;SDS011;20046;50.746;7.072;2023-05-10T07:12:18;12.43;;;7.22;;
33716;SDS011;20046;50.746;7.072;2023-05-10T07:14:43;13.05;;;6.95;;
33716;SDS011;20046;50.746;7.072;2023-05-10T07:17:09;18.42;;;7.20;;
33716;SDS011;20046;50.746;7.072;2023-05-10T07:19:35;10.00;;;6.90;;
33716;SDS011;20046;50.746;7.072;2023-05-10T07:22:01;17.35;;;7.07;;
33716;SDS011;20046;50.746;7.072;2023-05-10T07:24:26;11.05;;;7.47;;
33716;SDS011;20046;50.746;7.072;2023-05-10T07:26:52;15.65;;;7.95;;
33716;SDS011;20046;50.746;7.072;2023-05-10T07:29:18;13.82;;;7.85;;
33716;SDS011;20046;50.746;7.072;2023-05-10T07:31:43;11.75;;;7.22;;
33716;SDS011;20046;50.746;7.072;2023-05-10T07:34:09;12.32;;;7.03;;
33716;SDS011;20046;50.746;7.072;2023-05-10T07:36:35;14.18;;;7.15;;
33716;SDS011;20046;50.746;7.072;2023-05-10T07:39:00;8.75;;;5.78;;
33716;SDS011;20046;50.746;7.072;2023-05-10T07:41:26;17.10;;;7.45;;
33716;SDS011;20046;50.746;7.072;2023-05-10T07:43:52;9.88;;;6.20;;
33716;SDS011;20046;50.746;7.072;2023-05-10T07:46:18;14.43;;;6.45;;
33716;SDS011;20046;50.746;7.072;2023-05-10T07:48:44;12.23;;;6.50;;
33716;SDS011;20046;50.746;7.072;2023-05-10T07:51:10;11.13;;;6.60;;
33716;SDS011;20046;50.746;7.072;2023-05-10T07:53:36;16.83;;;7.28;;
33716;SDS011;20046;50.746;7.072;2023-05-10T07:56:20;13.75;;;8.02;;
33716;SDS011;20046;50.746;7.072;2023-05-10T07:58:52;14.20;;;6.90;;
33716;SDS011;20046;50.746;7.072;2023-05-10T08:01:19;15.32;;;5.78;;
33716;SDS011;20046;50.746;7.072;2023-05-10T08:03:44;13.45;;;6.72;;
33716;SDS011;20046;50.746;7.072;2023-05-10T08:06:10;14.43;;;6.35;;
33716;SDS011;20046;50.746;7.072;2023-05-10T08:08:36;9.48;;;5.97;;
33716;SDS011;20046;50.746;7.072;2023-05-10T08:11:01;9.07;;;6.07;;
33716;SDS011;20046;50.746;7.072;2023-05-10T08:13:28;8.35;;;5.25;;
33716;SDS011;20046;50.746;7.072;2023-05-10T08:15:54;8.82;;;6.43;;
33716;SDS011;20046;50.746;7.072;2023-05-10T08:18:20;14.73;;;7.05;;
33716;SDS011;20046;50.746;7.072;2023-05-10T08:20:46;10.80;;;5.40;;
33716;SDS011;20046;50.746;7.072;2023-05-10T08:23:14;10.30;;;5.75;;
33716;SDS011;20046;50.746;7.072;2023-05-10T08:25:40;9.15;;;5.55;;
33716;SDS011;20046;50.746;7.072;2023-05-10T08:28:06;9.63;;;5.53;;
33716;SDS011;20046;50.746;7.072;2023-05-10T08:30:31;11.00;;;5.35;;
33716;SDS011;20046;50.746;7.072;2023-05-10T08:32:57;10.45;;;5.15;;
33716;SDS011;20046;50.746;7.072;2023-05-10T08:35:22;8.93;;;5.13;;
33716;SDS011;20046;50.746;7.072;2023-05-10T08:37:49;8.65;;;5.35;;
33716;SDS011;20046;50.746;7.072;2023-05-10T08:40:15;9.05;;;5.35;;
33716;SDS011;20046;50.746;7.072;2023-05-10T08:42:43;11.43;;;5.57;;
33716;SDS011;20046;50.746;7.072;2023-05-10T08:45:19;13.07;;;5.85;;
33716;SDS011;20046;50.746;7.072;2023-05-10T08:47:46;10.70;;;4.93;;
33716;SDS011;20046;50.746;7.072;2023-05-10T08:50:12;9.95;;;5.00;;
33716;SDS011;20046;50.746;7.072;2023-05-10T08:52:39;9.80;;;5.05;;
33716;SDS011;20046;50.746;7.072;2023-05-10T08:55:06;16.20;;;5.70;;
33716;SDS011;20046;50.746;7.072;2023-05-10T08:57:32;9.32;;;4.63;;
33716;SDS011;20046;50.746;7.072;2023-05-10T08:59:58;3.72;;;3.00;;
33716;SDS011;20046;50.746;7.072;2023-05-10T09:02:26;10.07;;;2.75;;
33716;SDS011;20046;50.746;7.072;2023-05-10T09:04:52;7.40;;;2.83;;
33716;SDS011;20046;50.746;7.072;2023-05-10T09:07:17;4.40;;;2.85;;
33716;SDS011;20046;50.746;7.072;2023-05-10T09:09:44;12.35;;;3.67;;
33716;SDS011;20046;50.746;7.072;2023-05-10T09:12:11;6.10;;;2.90;;
33716;SDS011;20046;50.746;7.072;2023-05-10T09:14:38;3.55;;;2.70;;
33716;SDS011;20046;50.746;7.072;2023-05-10T09:17:04;3.65;;;1.75;;
33716;SDS011;20046;50.746;7.072;2023-05-10T09:19:30;3.33;;;1.98;;
33716;SDS011;20046;50.746;7.072;2023-05-10T09:21:56;5.75;;;2.13;;
33716;SDS011;20046;50.746;7.072;2023-05-10T09:24:24;3.58;;;1.95;;
33716;SDS011;20046;50.746;7.072;2023-05-10T09:26:51;3.28;;;2.17;;
33716;SDS011;20046;50.746;7.072;2023-05-10T09:29:17;4.20;;;1.85;;
33716;SDS011;20046;50.746;7.072;2023-05-10T09:31:52;3.08;;;1.88;;
33716;SDS011;20046;50.746;7.072;2023-05-10T09:34:30;1.80;;;1.40;;
33716;SDS011;20046;50.746;7.072;2023-05-10T09:36:58;4.22;;;1.45;;
33716;SDS011;20046;50.746;7.072;2023-05-10T09:39:36;5.30;;;1.73;;
33716;SDS011;20046;50.746;7.072;2023-05-10T09:42:03;1.63;;;1.38;;
33716;SDS011;20046;50.746;7.072;2023-05-10T09:44:31;2.17;;;1.30;;
33716;SDS011;20046;50.746;7.072;2023-05-10T09:46:58;3.33;;;1.90;;
33716;SDS011;20046;50.746;7.072;2023-05-10T09:49:24;3.00;;;1.25;;
33716;SDS011;20046;50.746;7.072;2023-05-10T09:52:05;17.50;;;1.80;;
33716;SDS011;20046;50.746;7.072;2023-05-10T09:54:32;2.70;;;1.40;;
33716;SDS011;20046;50.746;7.072;2023-05-10T09:56:58;5.03;;;1.73;;
33716;SDS011;20046;50.746;7.072;2023-05-10T09:59:25;2.92;;;1.50;;
33716;SDS011;20046;50.746;7.072;2023-05-10T10:01:52;3.30;;;1.73;;
33716;SDS011;20046;50.746;7.072;2023-05-10T10:04:21;6.22;;;1.77;;
33716;SDS011;20046;50.746;7.072;2023-05-10T10:06:47;2.40;;;1.85;;
33716;SDS011;20046;50.746;7.072;2023-05-10T10:09:29;3.67;;;2.70;;
33716;SDS011;20046;50.746;7.072;2023-05-10T10:11:56;6.30;;;3.13;;
33716;SDS011;20046;50.746;7.072;2023-05-10T10:14:22;10.73;;;4.22;;
33716;SDS011;20046;50.746;7.072;2023-05-10T10:16:51;8.68;;;4.60;;
33716;SDS011;20046;50.746;7.072;2023-05-10T10:19:20;9.13;;;5.00;;
33716;SDS011;20046;50.746;7.072;2023-05-10T10:21:46;10.57;;;5.78;;
33716;SDS011;20046;50.746;7.072;2023-05-10T10:24:12;12.27;;;6.55;;
33716;SDS011;20046;50.746;7.072;2023-05-10T10:26:38;14.15;;;6.95;;
33716;SDS011;20046;50.746;7.072;2023-05-10T10:34:46;13.23;;;7.82;;
33716;SDS011;20046;50.746;7.072;2023-05-10T10:37:12;9.65;;;5.70;;
33716;SDS011;20046;50.746;7.072;2023-05-10T10:39:38;9.45;;;5.20;;
33716;SDS011;20046;50.746;7.072;2023-05-10T10:42:04;9.18;;;5.43;;
33716;SDS011;20046;50.746;7.072;2023-05-10T10:52:14;10.97;;;4.67;;
33716;SDS011;20046;50.746;7.072;2023-05-10T10:54:59;5.75;;;3.00;;
33716;SDS011;20046;50.746;7.072;2023-05-10T10:57:31;4.68;;;3.15;;
33716;SDS011;20046;50.746;7.072;2023-05-10T11:02:49;2.83;;;1.80;;
33716;SDS011;20046;50.746;7.072;2023-05-10T11:08:00;1.20;;;1.02;;
33716;SDS011;20046;50.746;7.072;2023-05-10T11:10:32;1.13;;;0.75;;
33716;SDS011;20046;50.746;7.072;2023-05-10T11:15:52;3.53;;;0.70;;
33716;SDS011;20046;50.746;7.072;2023-05-10T11:18:19;1.13;;;0.88;;
33716;SDS011;20046;50.746;7.072;2023-05-10T11:20:51;4.90;;;0.70;;
33716;SDS011;20046;50.746;7.072;2023-05-10T11:26:11;2.63;;;0.82;;
33716;SDS011;20046;50.746;7.072;2023-05-10T11:28:44;1.27;;;1.17;;
33716;SDS011;20046;50.746;7.072;2023-05-10T11:31:14;1.40;;;1.00;;
33716;SDS011;20046;50.746;7.072;2023-05-10T11:33:44;2.58;;;1.38;;
33716;SDS011;20046;50.746;7.072;2023-05-10T11:36:11;1.48;;;1.23;;
33716;SDS011;20046;50.746;7.072;2023-05-10T11:38:39;2.60;;;1.30;;
33716;SDS011;20046;50.746;7.072;2023-05-10T11:41:04;2.40;;;1.33;;
33716;SDS011;20046;50.746;7.072;2023-05-10T11:43:30;1.08;;;0.90;;
33716;SDS011;20046;50.746;7.072;2023-05-10T11:45:56;4.03;;;1.45;;
33716;SDS011;20046;50.746;7.072;2023-05-10T11:48:21;5.07;;;1.65;;
33716;SDS011;20046;50.746;7.072;2023-05-10T11:50:49;2.03;;;1.10;;
33716;SDS011;20046;50.746;7.072;2023-05-10T11:53:15;1.75;;;1.08;;
33716;SDS011;20046;50.746;7.072;2023-05-10T11:55:40;7.07;;;1.83;;
33716;SDS011;20046;50.746;7.072;2023-05-10T11:58:06;1.77;;;1.20;;
33716;SDS011;20046;50.746;7.072;2023-05-10T12:00:31;2.80;;;1.20;;
33716;SDS011;20046;50.746;7.072;2023-05-10T12:02:57;1.30;;;0.98;;
33716;SDS011;20046;50.746;7.072;2023-05-10T12:05:25;4.00;;;1.48;;
33716;SDS011;20046;50.746;7.072;2023-05-10T12:07:51;2.05;;;1.60;;
33716;SDS011;20046;50.746;7.072;2023-05-10T12:10:17;2.63;;;1.67;;
33716;SDS011;20046;50.746;7.072;2023-05-10T12:12:51;3.10;;;1.92;;
33716;SDS011;20046;50.746;7.072;2023-05-10T12:15:18;2.95;;;2.00;;
33716;SDS011;20046;50.746;7.072;2023-05-10T12:17:48;2.65;;;1.80;;
33716;SDS011;20046;50.746;7.072;2023-05-10T12:20:15;3.92;;;1.85;;
33716;SDS011;20046;50.746;7.072;2023-05-10T12:22:46;2.22;;;1.50;;
33716;SDS011;20046;50.746;7.072;2023-05-10T12:25:17;2.90;;;1.58;;
33716;SDS011;20046;50.746;7.072;2023-05-10T12:27:56;3.08;;;1.55;;
33716;SDS011;20046;50.746;7.072;2023-05-10T12:30:23;1.67;;;1.20;;
33716;SDS011;20046;50.746;7.072;2023-05-10T12:32:58;4.88;;;1.40;;
33716;SDS011;20046;50.746;7.072;2023-05-10T12:35:26;5.18;;;1.88;;
33716;SDS011;20046;50.746;7.072;2023-05-10T12:37:54;4.88;;;1.30;;
33716;SDS011;20046;50.746;7.072;2023-05-10T12:40:20;1.20;;;1.10;;
33716;SDS011;20046;50.746;7.072;2023-05-10T12:42:45;1.48;;;1.10;;
33716;SDS011;20046;50.746;7.072;2023-05-10T12:45:11;2.08;;;1.20;;
33716;SDS011;20046;50.746;7.072;2023-05-10T12:47:37;3.22;;;1.23;;
33716;SDS011;20046;50.746;7.072;2023-05-10T12:50:03;4.15;;;1.30;;
33716;SDS011;20046;50.746;7.072;2023-05-10T12:52:29;2.33;;;1.40;;
33716;SDS011;20046;50.746;7.072;2023-05-10T12:54:56;1.85;;;1.48;;
33716;SDS011;20046;50.746;7.072;2023-05-10T12:57:22;5.68;;;1.42;;
33716;SDS011;20046;50.746;7.072;2023-05-10T12:59:48;1.95;;;1.40;;
33716;SDS011;20046;50.746;7.072;2023-05-10T13:02:14;8.57;;;5.22;;
33716;SDS011;20046;50.746;7.072;2023-05-10T13:04:42;3.25;;;1.63;;
33716;SDS011;20046;50.746;7.072;2023-05-10T13:07:08;6.13;;;2.10;;
33716;SDS011;20046;50.746;7.072;2023-05-10T13:09:34;1.73;;;1.48;;
33716;SDS011;20046;50.746;7.072;2023-05-10T13:12:00;3.25;;;1.50;;
33716;SDS011;20046;50.746;7.072;2023-05-10T13:14:26;1.40;;;1.30;;
33716;SDS011;20046;50.746;7.072;2023-05-10T13:16:51;3.00;;;1.23;;
33716;SDS011;20046;50.746;7.072;2023-05-10T13:19:17;2.08;;;1.52;;
33716;SDS011;20046;50.746;7.072;2023-05-10T13:21:43;4.35;;;1.50;;
33716;SDS011;20046;50.746;7.072;2023-05-10T13:24:12;3.13;;;1.40;;
33716;SDS011;20046;50.746;7.072;2023-05-10T13:26:42;2.65;;;1.20;;
33716;SDS011;20046;50.746;7.072;2023-05-10T13:29:08;4.80;;;0.93;;
33716;SDS011;20046;50.746;7.072;2023-05-10T13:31:34;1.35;;;0.95;;
33716;SDS011;20046;50.746;7.072;2023-05-10T13:34:00;1.30;;;1.00;;
33716;SDS011;20046;50.746;7.072;2023-05-10T13:36:26;2.00;;;1.00;;
33716;SDS011;20046;50.746;7.072;2023-05-10T13:38:52;1.60;;;0.85;;
33716;SDS011;20046;50.746;7.072;2023-05-10T13:41:17;1.42;;;1.08;;
33716;SDS011;20046;50.746;7.072;2023-05-10T13:43:43;2.67;;;1.20;;
33716;SDS011;20046;50.746;7.072;2023-05-10T13:46:09;1.95;;;1.10;;
33716;SDS011;20046;50.746;7.072;2023-05-10T13:48:34;4.07;;;1.40;;
33716;SDS011;20046;50.746;7.072;2023-05-10T13:51:01;3.42;;;1.90;;
33716;SDS011;20046;50.746;7.072;2023-05-10T13:53:27;2.72;;;1.30;;
33716;SDS011;20046;50.746;7.072;2023-05-10T13:55:53;2.75;;;1.50;;
33716;SDS011;20046;50.746;7.072;2023-05-10T13:58:18;1.42;;;1.30;;
33716;SDS011;20046;50.746;7.072;2023-05-10T14:00:44;3.08;;;1.20;;
33716;SDS011;20046;50.746;7.072;2023-05-10T14:03:09;3.58;;;1.73;;
33716;SDS011;20046;50.746;7.072;2023-05-10T14:05:35;5.85;;;1.73;;
33716;SDS011;20046;50.746;7.072;2023-05-10T14:08:01;16.55;;;9.13;;
33716;SDS011;20046;50.746;7.072;2023-05-10T14:10:28;2.80;;;1.38;;
33716;SDS011;20046;50.746;7.072;2023-05-10T14:12:55;4.32;;;2.58;;
33716;SDS011;20046;50.746;7.072;2023-05-10T14:15:20;6.90;;;3.55;;
33716;SDS011;20046;50.746;7.072;2023-05-10T14:17:46;8.32;;;4.75;;
33716;SDS011;20046;50.746;7.072;2023-05-10T14:20:11;2.78;;;1.65;;
33716;SDS011;20046;50.746;7.072;2023-05-10T14:22:37;7.05;;;1.67;;
33716;SDS011;20046;50.746;7.072;2023-05-10T14:25:03;4.20;;;1.63;;
33716;SDS011;20046;50.746;7.072;2023-05-10T14:27:28;3.13;;;1.50;;
33716;SDS011;20046;50.746;7.072;2023-05-10T14:29:55;5.20;;;1.65;;
33716;SDS011;20046;50.746;7.072;2023-05-10T14:32:20;3.78;;;1.70;;
33716;SDS011;20046;50.746;7.072;2023-05-10T14:34:46;3.70;;;1.52;;
33716;SDS011;20046;50.746;7.072;2023-05-10T14:37:13;3.42;;;1.52;;
33716;SDS011;20046;50.746;7.072;2023-05-10T14:39:38;8.15;;;2.13;;
33716;SDS011;20046;50.746;7.072;2023-05-10T14:42:04;10.07;;;2.25;;
33716;SDS011;20046;50.746;7.072;2023-05-10T14:44:29;8.73;;;2.00;;
33716;SDS011;20046;50.746;7.072;2023-05-10T14:46:55;5.28;;;2.10;;
33716;SDS011;20046;50.746;7.072;2023-05-10T14:49:21;7.00;;;1.98;;
33716;SDS011;20046;50.746;7.072;2023-05-10T14:51:47;4.28;;;2.22;;
33716;SDS011;20046;50.746;7.072;2023-05-10T14:54:13;7.28;;;2.45;;
33716;SDS011;20046;50.746;7.072;2023-05-10T14:56:39;5.95;;;2.60;;
33716;SDS011;20046;50.746;7.072;2023-05-10T14:59:06;4.15;;;2.00;;
33716;SDS011;20046;50.746;7.072;2023-05-10T15:01:32;6.03;;;2.85;;
33716;SDS011;20046;50.746;7.072;2023-05-10T15:03:59;6.65;;;2.60;;
33716;SDS011;20046;50.746;7.072;2023-05-10T15:06:34;2.70;;;1.77;;
33716;SDS011;20046;50.746;7.072;2023-05-10T15:09:00;6.15;;;2.30;;
33716;SDS011;20046;50.746;7.072;2023-05-10T15:11:28;6.22;;;2.88;;
33716;SDS011;20046;50.746;7.072;2023-05-10T15:13:54;6.97;;;3.55;;
33716;SDS011;20046;50.746;7.072;2023-05-10T15:16:20;6.60;;;3.33;;
33716;SDS011;20046;50.746;7.072;2023-05-10T15:18:45;9.45;;;3.40;;
33716;SDS011;20046;50.746;7.072;2023-05-10T15:21:11;3.65;;;2.50;;